createdAt,value
2022-08-22T00:00:02.805Z,68.9
2022-08-22T00:06:02.781Z,68.9
2022-08-22T00:09:02.773Z,68.9
2022-08-22T00:12:02.785Z,68.9
2022-08-22T00:15:02.755Z,68.9
2022-08-22T00:18:07.708Z,68.9
2022-08-22T00:21:02.784Z,68.9
2022-08-22T00:24:02.800Z,69.6
2022-08-22T00:27:02.786Z,69.6
2022-08-22T00:30:05.349Z,69.6
2022-08-22T00:33:02.764Z,69.6
2022-08-22T00:36:02.742Z,70
2022-08-22T00:39:02.903Z,70
2022-08-22T00:42:02.738Z,70
2022-08-22T00:45:02.779Z,70
2022-08-22T00:48:02.997Z,70
2022-08-22T00:51:02.838Z,70
2022-08-22T00:54:02.750Z,70
2022-08-22T00:57:02.752Z,70
2022-08-22T01:00:02.810Z,70
2022-08-22T01:03:02.809Z,70
2022-08-22T01:06:02.774Z,70
2022-08-22T01:09:02.794Z,70.8
2022-08-22T01:12:02.781Z,70.8
2022-08-22T01:15:02.784Z,70.8
2022-08-22T01:18:02.898Z,70.8
2022-08-22T01:21:02.748Z,70.8
2022-08-22T01:24:02.878Z,71.5
2022-08-22T01:27:02.835Z,71.5
2022-08-22T01:30:04.865Z,71.5
2022-08-22T01:33:02.786Z,71.5
2022-08-22T01:36:02.812Z,71.5
2022-08-22T01:39:02.847Z,71.5
2022-08-22T01:42:02.807Z,73.8
2022-08-22T01:45:02.798Z,73.8
2022-08-22T01:48:03.490Z,73.8
2022-08-22T01:51:02.836Z,73.8
2022-08-22T01:54:03.572Z,73.8
2022-08-22T01:57:02.825Z,73.8
2022-08-22T02:00:02.880Z,73.8
2022-08-22T02:03:02.785Z,73.8
2022-08-22T02:06:02.761Z,73.8
2022-08-22T02:09:02.820Z,73.8
2022-08-22T02:12:02.799Z,73.8
2022-08-22T02:15:02.814Z,75.8
2022-08-22T02:18:03.493Z,75.8
2022-08-22T02:21:02.770Z,75.4
2022-08-22T02:24:02.781Z,75.4
2022-08-22T02:27:02.785Z,75.4
2022-08-22T02:30:02.818Z,75.4
2022-08-22T02:33:02.715Z,75.4
2022-08-22T02:36:02.842Z,75.4
2022-08-22T02:39:02.742Z,75.4
2022-08-22T02:42:02.785Z,75.4
2022-08-22T02:45:02.730Z,75.4
2022-08-22T02:48:02.882Z,75.4
2022-08-22T02:51:02.773Z,75.4
2022-08-22T02:54:02.825Z,75.4
2022-08-22T02:57:02.713Z,75.4
2022-08-22T03:00:02.785Z,75.4
2022-08-22T03:03:02.739Z,75.4
2022-08-22T03:06:04.271Z,73.8
2022-08-22T03:09:02.751Z,73.8
2022-08-22T03:12:02.877Z,73.8
2022-08-22T03:15:02.797Z,74.2
2022-08-22T03:18:03.335Z,74.2
2022-08-22T03:21:02.753Z,74.2
2022-08-22T03:24:02.747Z,74.2
2022-08-22T03:27:02.801Z,74.2
2022-08-22T03:30:02.741Z,74.2
2022-08-22T03:33:02.758Z,74.2
2022-08-22T03:36:02.736Z,74.2
2022-08-22T03:39:02.805Z,74.2
2022-08-22T03:42:02.783Z,74.2
2022-08-22T03:45:02.749Z,74.2
2022-08-22T03:48:03.152Z,74.2
2022-08-22T03:51:02.799Z,74.2
2022-08-22T03:54:02.766Z,74.2
2022-08-22T03:57:02.965Z,74.2
2022-08-22T04:00:02.816Z,74.2
2022-08-22T04:03:02.761Z,74.2
2022-08-22T04:06:03.130Z,74.2
2022-08-22T04:09:03.568Z,74.2
2022-08-22T04:12:02.744Z,75.4
2022-08-22T04:15:02.851Z,75.4
2022-08-22T04:18:02.803Z,75.4
2022-08-22T04:21:02.837Z,75.4
2022-08-22T04:24:02.802Z,75.4
2022-08-22T04:27:02.796Z,75.4
2022-08-22T04:30:02.793Z,75.4
2022-08-22T04:33:02.783Z,75.4
2022-08-22T04:36:02.767Z,75.4
2022-08-22T04:39:02.789Z,75.4
2022-08-22T04:42:34.369Z,75.4
2022-08-22T04:45:02.970Z,76
2022-08-22T04:48:02.978Z,76
2022-08-22T04:51:02.749Z,76
2022-08-22T04:54:02.818Z,76
2022-08-22T04:57:02.776Z,76
2022-08-22T05:00:02.870Z,76
2022-08-22T05:03:02.912Z,76
2022-08-22T05:06:02.830Z,76.5
2022-08-22T05:09:02.733Z,76.5
2022-08-22T05:12:02.847Z,76.5
2022-08-22T05:15:03.442Z,76.5
2022-08-22T05:18:03.030Z,76.5
2022-08-22T05:21:02.871Z,76.5
2022-08-22T05:24:02.809Z,76.5
2022-08-22T05:27:02.856Z,76.5
2022-08-22T05:30:03.005Z,76.5
2022-08-22T05:33:02.802Z,78
2022-08-22T05:36:02.861Z,78
2022-08-22T05:39:02.900Z,78
2022-08-22T05:42:02.829Z,78
2022-08-22T05:45:02.774Z,78
2022-08-22T05:48:02.841Z,78
2022-08-22T05:51:02.826Z,78
2022-08-22T05:54:02.818Z,78
2022-08-22T05:57:08.197Z,78
2022-08-22T06:00:02.874Z,78
2022-08-22T06:03:02.797Z,82
2022-08-22T06:06:02.838Z,82
2022-08-22T06:09:02.775Z,82
2022-08-22T06:12:02.813Z,82
2022-08-22T06:15:02.793Z,82
2022-08-22T06:18:03.221Z,82
2022-08-22T06:21:02.829Z,82
2022-08-22T06:24:02.787Z,83.2
2022-08-22T06:27:02.758Z,83.2
2022-08-22T06:30:03.107Z,83.2
2022-08-22T06:33:03.418Z,83.2
2022-08-22T06:36:02.853Z,82.9
2022-08-22T06:39:02.832Z,82.9
2022-08-22T06:42:02.829Z,82.9
2022-08-22T06:45:02.792Z,82.9
2022-08-22T06:48:03.761Z,81.9
2022-08-22T06:51:02.783Z,81.9
2022-08-22T06:54:02.807Z,81.9
2022-08-22T06:57:02.805Z,80.8
2022-08-22T07:00:03.693Z,80.8
2022-08-22T07:03:02.921Z,79.7
2022-08-22T07:06:02.826Z,79.7
2022-08-22T07:09:08.931Z,79.5
2022-08-22T07:12:02.782Z,79.5
2022-08-22T07:15:02.789Z,77.2
2022-08-22T07:18:03.115Z,77.2
2022-08-22T07:21:04.482Z,77.2
2022-08-22T07:24:02.799Z,77.2
2022-08-22T07:27:02.846Z,75.2
2022-08-22T07:30:02.847Z,75.2
2022-08-22T07:33:28.958Z,75.2
2022-08-22T07:36:02.833Z,74.8
2022-08-22T07:39:03.082Z,74.8
2022-08-22T07:42:02.793Z,72.9
2022-08-22T07:45:02.806Z,72.9
2022-08-22T07:48:03.337Z,72.9
2022-08-22T07:51:02.808Z,71.9
2022-08-22T07:54:03.317Z,71.9
2022-08-22T07:57:02.783Z,71.9
2022-08-22T08:00:02.890Z,69.3
2022-08-22T08:03:02.766Z,69.3
2022-08-22T08:06:02.791Z,69.3
2022-08-22T08:09:02.878Z,67.9
2022-08-22T08:12:02.886Z,67.9
2022-08-22T08:15:02.808Z,67.9
2022-08-22T08:18:03.246Z,66.3
2022-08-22T08:21:02.805Z,66.3
2022-08-22T08:24:02.780Z,65.4
2022-08-22T08:27:02.823Z,65.4
2022-08-22T08:30:02.841Z,65.4
2022-08-22T08:33:29.000Z,65.4
2022-08-22T08:36:06.252Z,65.4
2022-08-22T08:39:02.836Z,65.4
2022-08-22T08:42:02.790Z,65.4
2022-08-22T08:45:02.835Z,65.4
2022-08-22T08:48:03.231Z,61.8
2022-08-22T08:51:04.495Z,61.8
2022-08-22T08:54:03.709Z,61.8
2022-08-22T08:57:02.806Z,63
2022-08-22T09:00:03.307Z,61.8
2022-08-22T09:03:09.279Z,61.8
2022-08-22T09:06:03.041Z,61.8
2022-08-22T09:09:03.741Z,60.4
2022-08-22T09:12:02.809Z,60.4
2022-08-22T09:15:02.838Z,60.4
2022-08-22T09:18:03.685Z,60.4
2022-08-22T09:21:03.033Z,60.4
2022-08-22T09:24:02.872Z,60.4
2022-08-22T09:27:02.861Z,60.4
2022-08-22T09:30:04.569Z,60.4
2022-08-22T09:33:02.816Z,53.9
2022-08-22T09:36:03.303Z,53.9
2022-08-22T09:39:02.781Z,53.9
2022-08-22T09:42:04.898Z,53.9
2022-08-22T09:45:02.823Z,53.9
2022-08-22T09:48:09.987Z,53.9
2022-08-22T09:51:34.578Z,53.9
2022-08-22T09:54:02.871Z,53.9
2022-08-22T09:57:02.930Z,51.9
2022-08-22T10:00:04.234Z,51.4
2022-08-22T10:03:04.279Z,51.4
2022-08-22T10:06:02.829Z,51.4
2022-08-22T10:09:02.799Z,51.4
2022-08-22T10:12:02.823Z,51.4
2022-08-22T10:15:03.695Z,51.4
2022-08-22T10:18:02.815Z,50.2
2022-08-22T10:21:02.800Z,50.2
2022-08-22T10:24:02.995Z,50.2
2022-08-22T10:27:03.219Z,50.2
2022-08-22T10:30:02.972Z,50.2
2022-08-22T10:33:05.245Z,50.2
2022-08-22T10:36:07.130Z,50.2
2022-08-22T10:39:11.906Z,50.2
2022-08-22T10:42:05.079Z,50.2
2022-08-22T10:45:02.929Z,50.2
2022-08-22T10:48:03.406Z,47.7
2022-08-22T10:51:02.780Z,47
2022-08-22T10:54:02.967Z,47
2022-08-22T10:57:02.952Z,47
2022-08-22T11:00:02.974Z,47
2022-08-22T11:03:03.192Z,47
2022-08-22T11:06:02.791Z,47
2022-08-22T11:09:02.862Z,47
2022-08-22T11:12:04.808Z,47
2022-08-22T11:15:05.101Z,47
2022-08-22T11:18:03.945Z,47
2022-08-22T11:21:02.828Z,45.8
2022-08-22T11:24:02.989Z,45.8
2022-08-22T11:27:02.851Z,45.8
2022-08-22T11:30:04.335Z,45.8
2022-08-22T11:33:03.751Z,45.8
2022-08-22T11:36:06.800Z,45.8
2022-08-22T11:39:03.489Z,45.8
2022-08-22T11:42:02.827Z,45.8
2022-08-22T11:45:03.743Z,45.8
2022-08-22T11:48:03.309Z,45.8
2022-08-22T11:51:02.808Z,42.3
2022-08-22T11:54:02.807Z,42.3
2022-08-22T11:57:02.781Z,42.9
2022-08-22T12:00:02.975Z,42.9
2022-08-22T12:03:03.351Z,42.9
2022-08-22T12:06:02.780Z,42.9
2022-08-22T12:09:04.476Z,42.9
2022-08-22T12:12:06.697Z,42.9
2022-08-22T12:15:02.974Z,42.9
2022-08-22T12:18:04.379Z,42.9
2022-08-22T12:21:02.800Z,42.9
2022-08-22T12:24:11.032Z,42.9
2022-08-22T12:27:03.038Z,42.9
2022-08-22T12:30:02.841Z,42.9
2022-08-22T12:33:03.440Z,42.9
2022-08-22T12:36:02.838Z,42.9
2022-08-22T12:39:02.818Z,42.9
2022-08-22T12:42:06.202Z,42
2022-08-22T12:45:03.369Z,42
2022-08-22T12:48:04.105Z,42
2022-08-22T12:51:03.440Z,42.4
2022-08-22T12:54:06.611Z,42.4
2022-08-22T12:57:03.772Z,42.4
2022-08-22T13:00:04.265Z,42.4
2022-08-22T13:03:03.453Z,42.4
2022-08-22T13:06:03.086Z,42.4
2022-08-22T13:09:02.844Z,42.4
2022-08-22T13:12:04.736Z,42.4
2022-08-22T13:15:02.823Z,42.4
2022-08-22T13:18:32.783Z,42.4
2022-08-22T13:21:03.073Z,42.4
2022-08-22T13:24:02.808Z,42.4
2022-08-22T13:27:03.771Z,42.4
2022-08-22T13:30:02.881Z,42.4
2022-08-22T13:33:02.787Z,42.4
2022-08-22T13:36:02.812Z,40.5
2022-08-22T13:39:02.784Z,40.5
2022-08-22T13:42:02.918Z,41.3
2022-08-22T13:45:06.536Z,41.3
2022-08-22T13:48:08.634Z,41.3
2022-08-22T13:51:04.198Z,41.3
2022-08-22T13:54:10.756Z,41.3
2022-08-22T13:57:02.881Z,41.3
2022-08-22T14:00:09.073Z,41.3
2022-08-22T14:03:08.177Z,41.3
2022-08-22T14:06:41.320Z,41.3
2022-08-22T14:09:02.993Z,41.3
2022-08-22T14:12:02.782Z,41.3
2022-08-22T14:15:03.673Z,41.3
2022-08-22T14:18:05.543Z,41.3
2022-08-22T14:21:02.783Z,41.3
2022-08-22T14:24:02.844Z,41.3
2022-08-22T14:27:08.680Z,41.3
2022-08-22T14:30:03.094Z,41.3
2022-08-22T14:33:02.786Z,41.3
2022-08-22T14:36:04.437Z,39.4
2022-08-22T14:39:02.822Z,39.4
2022-08-22T14:42:11.956Z,37.9
2022-08-22T14:45:06.394Z,37.9
2022-08-22T14:48:37.573Z,37.9
2022-08-22T14:51:05.954Z,37.9
2022-08-22T14:54:06.356Z,37.9
2022-08-22T14:57:02.798Z,37.9
2022-08-22T15:00:02.860Z,37.9
2022-08-22T15:03:05.626Z,37.9
2022-08-22T15:06:02.799Z,37.9
2022-08-22T15:09:10.149Z,37.9
2022-08-22T15:12:06.107Z,37.9
2022-08-22T15:15:03.485Z,37.9
2022-08-22T15:18:02.922Z,37.9
2022-08-22T15:21:02.829Z,37.9
2022-08-22T15:24:02.853Z,37.9
2022-08-22T15:27:08.871Z,40.3
2022-08-22T15:30:04.696Z,40.3
2022-08-22T15:33:03.358Z,40.3
2022-08-22T15:36:02.794Z,40.3
2022-08-22T15:39:02.823Z,40.3
2022-08-22T15:42:03.645Z,40.3
2022-08-22T15:45:02.814Z,40.3
2022-08-22T15:48:04.411Z,40.3
2022-08-22T15:51:04.510Z,40.3
2022-08-22T15:54:03.824Z,40.4
2022-08-22T15:57:02.803Z,40.4
2022-08-22T16:00:03.065Z,40.4
2022-08-22T16:03:03.980Z,40.4
2022-08-22T16:06:02.805Z,40.4
2022-08-22T16:09:02.838Z,40.4
2022-08-22T16:12:02.808Z,40.4
2022-08-22T16:15:02.806Z,40.4
2022-08-22T16:18:02.981Z,40.4
2022-08-22T16:21:02.795Z,41
2022-08-22T16:24:02.793Z,41
2022-08-22T16:27:02.915Z,41
2022-08-22T16:30:02.871Z,41
2022-08-22T16:33:02.813Z,41
2022-08-22T16:36:02.827Z,41
2022-08-22T16:39:02.806Z,41
2022-08-22T16:42:02.810Z,41
2022-08-22T16:45:02.839Z,41
2022-08-22T16:48:02.964Z,41
2022-08-22T16:51:02.797Z,41
2022-08-22T16:54:02.842Z,41
2022-08-22T16:57:02.864Z,41
2022-08-22T17:00:02.917Z,41
2022-08-22T17:03:02.841Z,41
2022-08-22T17:06:02.774Z,41
2022-08-22T17:09:02.768Z,41
2022-08-22T17:12:02.760Z,41
2022-08-22T17:15:03.087Z,41
2022-08-22T17:18:13.985Z,40.8
2022-08-22T17:21:02.799Z,40.8
2022-08-22T17:24:03.536Z,40.8
2022-08-22T17:27:02.844Z,40.8
2022-08-22T17:30:02.856Z,40.8
2022-08-22T17:33:02.868Z,40.8
2022-08-22T17:36:02.899Z,40.8
2022-08-22T17:39:02.880Z,40.8
2022-08-22T17:42:02.783Z,40.8
2022-08-22T17:45:02.786Z,40.8
2022-08-22T17:48:03.309Z,44
2022-08-22T17:51:02.767Z,44
2022-08-22T17:54:02.797Z,44
2022-08-22T17:57:08.585Z,44
2022-08-22T18:00:02.876Z,44
2022-08-22T18:03:03.158Z,44
2022-08-22T18:06:02.880Z,44
2022-08-22T18:09:17.936Z,45.2
2022-08-22T18:12:02.779Z,45.8
2022-08-22T18:15:02.830Z,45.8
2022-08-22T18:18:03.183Z,45.8
2022-08-22T18:21:02.825Z,45.8
2022-08-22T18:24:02.774Z,45.8
2022-08-22T18:27:02.776Z,45.8
2022-08-22T18:30:02.874Z,46.3
2022-08-22T18:33:03.166Z,46.3
2022-08-22T18:36:02.745Z,46.3
2022-08-22T18:39:02.794Z,46.3
2022-08-22T18:42:03.405Z,46.3
2022-08-22T18:45:02.787Z,46.3
2022-08-22T18:48:02.766Z,47.7
2022-08-22T18:51:02.750Z,47.7
2022-08-22T18:54:02.794Z,47.7
2022-08-22T18:57:02.771Z,47.7
2022-08-22T19:00:02.748Z,47.7
2022-08-22T19:03:02.859Z,47.7
2022-08-22T19:06:02.814Z,48.6
2022-08-22T19:09:02.729Z,48.6
2022-08-22T19:12:02.830Z,49
2022-08-22T19:15:02.851Z,49
2022-08-22T19:18:02.805Z,49
2022-08-22T19:21:02.762Z,49
2022-08-22T19:24:02.839Z,49
2022-08-22T19:27:02.769Z,49
2022-08-22T19:30:02.795Z,49
2022-08-22T19:33:03.122Z,49
2022-08-22T19:36:02.785Z,49
2022-08-22T19:39:02.738Z,50.8
2022-08-22T19:42:02.836Z,50.8
2022-08-22T19:45:02.814Z,50.8
2022-08-22T19:48:02.780Z,50.8
2022-08-22T19:51:02.721Z,50.8
2022-08-22T19:54:02.769Z,50.8
2022-08-22T19:57:02.750Z,52.2
2022-08-22T20:00:02.832Z,52.2
2022-08-22T20:03:03.392Z,52.2
2022-08-22T20:06:17.707Z,52.9
2022-08-22T20:09:02.798Z,52.9
2022-08-22T20:12:02.832Z,52.9
2022-08-22T20:15:02.761Z,52.9
2022-08-22T20:21:02.811Z,54.1
2022-08-22T20:24:02.733Z,54.1
2022-08-22T20:27:17.906Z,54.1
2022-08-22T20:30:02.818Z,54.1
2022-08-22T20:33:03.315Z,54.1
2022-08-22T20:36:02.750Z,54.1
2022-08-22T20:39:02.860Z,54.1
2022-08-22T20:42:02.845Z,54.1
2022-08-22T20:45:02.990Z,54.1
2022-08-22T20:48:03.397Z,54.1
2022-08-22T20:51:02.886Z,54.1
2022-08-22T20:54:02.782Z,56
2022-08-22T20:57:02.859Z,56
2022-08-22T21:00:02.809Z,56
2022-08-22T21:03:02.792Z,56.3
2022-08-22T21:06:05.868Z,56.3
2022-08-22T21:09:02.769Z,56.3
2022-08-22T21:12:02.800Z,56.3
2022-08-22T21:15:02.857Z,56.3
2022-08-22T21:18:03.268Z,56.3
2022-08-22T21:21:02.839Z,57.5
2022-08-22T21:24:03.628Z,57.5
2022-08-22T21:27:04.572Z,57.5
2022-08-22T21:30:02.820Z,57.5
2022-08-22T21:33:02.856Z,57.5
2022-08-22T21:36:02.800Z,57.5
2022-08-22T21:39:05.824Z,57.5
2022-08-22T21:42:02.816Z,58.8
2022-08-22T21:45:02.825Z,58.8
2022-08-22T21:48:03.155Z,58.8
2022-08-22T21:51:02.873Z,58.8
2022-08-22T21:54:21.304Z,58.8
2022-08-22T21:57:02.837Z,58.8
2022-08-22T22:00:03.825Z,59.5
2022-08-22T22:09:02.754Z,59.5
2022-08-22T22:27:02.806Z,60.1
2022-08-22T22:36:02.734Z,60.1
2022-08-22T22:42:02.750Z,60.1
2022-08-22T22:51:02.759Z,60.1
2022-08-22T23:12:02.844Z,61.1
2022-08-22T23:18:03.382Z,61.1
2022-08-22T23:24:02.778Z,61.1
2022-08-22T23:27:02.768Z,61.1
2022-08-22T23:30:02.825Z,61.1
2022-08-22T23:39:02.769Z,62.3
2022-08-22T23:42:02.723Z,62.3
2022-08-22T23:54:02.717Z,62.5
2022-08-22T23:57:02.930Z,62.5
